sensor_id;sensor_type;location;lat;lon;timestamp;P1;durP1;ratioP1;P2;durP2;ratioP2
24859;SDS011;12936;52.006;4.350;2023-04-06T00:02:14;33.80;;;19.17;;
24859;SDS011;12936;52.006;4.350;2023-04-06T00:05:04;32.07;;;19.13;;
24859;SDS011;12936;52.006;4.350;2023-04-06T00:07:35;36.27;;;20.07;;
24859;SDS011;12936;52.006;4.350;2023-04-06T00:10:04;35.50;;;19.63;;
24859;SDS011;12936;52.006;4.350;2023-04-06T00:12:33;31.50;;;18.87;;
24859;SDS011;12936;52.006;4.350;2023-04-06T00:15:03;32.37;;;18.37;;
24859;SDS011;12936;52.006;4.350;2023-04-06T00:17:32;31.40;;;19.07;;
24859;SDS011;12936;52.006;4.350;2023-04-06T00:20:01;32.30;;;17.80;;
24859;SDS011;12936;52.006;4.350;2023-04-06T00:22:35;33.17;;;17.70;;
24859;SDS011;12936;52.006;4.350;2023-04-06T00:25:04;29.53;;;17.17;;
24859;SDS011;12936;52.006;4.350;2023-04-06T00:27:33;30.57;;;16.60;;
24859;SDS011;12936;52.006;4.350;2023-04-06T00:30:03;29.73;;;17.17;;
24859;SDS011;12936;52.006;4.350;2023-04-06T00:32:32;26.43;;;16.07;;
24859;SDS011;12936;52.006;4.350;2023-04-06T00:35:03;30.93;;;16.73;;
24859;SDS011;12936;52.006;4.350;2023-04-06T00:37:35;26.03;;;15.10;;
24859;SDS011;12936;52.006;4.350;2023-04-06T00:40:24;25.77;;;14.57;;
24859;SDS011;12936;52.006;4.350;2023-04-06T00:42:55;30.43;;;15.67;;
24859;SDS011;12936;52.006;4.350;2023-04-06T00:45:44;24.03;;;13.70;;
24859;SDS011;12936;52.006;4.350;2023-04-06T00:48:13;24.37;;;13.23;;
24859;SDS011;12936;52.006;4.350;2023-04-06T00:50:42;22.30;;;13.43;;
24859;SDS011;12936;52.006;4.350;2023-04-06T00:53:12;22.83;;;12.97;;
24859;SDS011;12936;52.006;4.350;2023-04-06T00:56:00;23.03;;;13.13;;
24859;SDS011;12936;52.006;4.350;2023-04-06T00:58:30;22.27;;;12.50;;
24859;SDS011;12936;52.006;4.350;2023-04-06T01:00:59;20.33;;;13.00;;
24859;SDS011;12936;52.006;4.350;2023-04-06T01:03:29;19.27;;;12.23;;
24859;SDS011;12936;52.006;4.350;2023-04-06T01:06:00;18.67;;;11.93;;
24859;SDS011;12936;52.006;4.350;2023-04-06T01:08:30;20.30;;;12.47;;
24859;SDS011;12936;52.006;4.350;2023-04-06T01:10:59;21.47;;;12.47;;
24859;SDS011;12936;52.006;4.350;2023-04-06T01:13:29;20.80;;;12.10;;
24859;SDS011;12936;52.006;4.350;2023-04-06T01:15:58;17.93;;;11.37;;
24859;SDS011;12936;52.006;4.350;2023-04-06T01:18:28;21.90;;;12.20;;
24859;SDS011;12936;52.006;4.350;2023-04-06T01:20:57;18.03;;;11.40;;
24859;SDS011;12936;52.006;4.350;2023-04-06T01:23:27;16.53;;;11.80;;
24859;SDS011;12936;52.006;4.350;2023-04-06T01:25:56;17.00;;;11.20;;
24859;SDS011;12936;52.006;4.350;2023-04-06T01:28:24;20.17;;;11.20;;
24859;SDS011;12936;52.006;4.350;2023-04-06T01:30:52;18.37;;;11.07;;
24859;SDS011;12936;52.006;4.350;2023-04-06T01:33:21;17.63;;;11.00;;
24859;SDS011;12936;52.006;4.350;2023-04-06T01:35:49;19.00;;;11.07;;
24859;SDS011;12936;52.006;4.350;2023-04-06T01:38:21;18.27;;;11.03;;
24859;SDS011;12936;52.006;4.350;2023-04-06T01:40:52;18.93;;;11.20;;
24859;SDS011;12936;52.006;4.350;2023-04-06T01:43:22;18.57;;;11.57;;
24859;SDS011;12936;52.006;4.350;2023-04-06T01:45:51;16.57;;;11.20;;
24859;SDS011;12936;52.006;4.350;2023-04-06T01:48:19;23.87;;;12.23;;
24859;SDS011;12936;52.006;4.350;2023-04-06T01:50:49;20.83;;;11.30;;
24859;SDS011;12936;52.006;4.350;2023-04-06T01:53:17;28.30;;;11.93;;
24859;SDS011;12936;52.006;4.350;2023-04-06T01:55:46;24.03;;;12.07;;
24859;SDS011;12936;52.006;4.350;2023-04-06T01:58:17;18.03;;;11.77;;
24859;SDS011;12936;52.006;4.350;2023-04-06T02:00:48;21.90;;;11.80;;
24859;SDS011;12936;52.006;4.350;2023-04-06T02:03:17;19.80;;;12.03;;
24859;SDS011;12936;52.006;4.350;2023-04-06T02:05:46;23.00;;;11.37;;
24859;SDS011;12936;52.006;4.350;2023-04-06T02:08:14;19.50;;;12.50;;
24859;SDS011;12936;52.006;4.350;2023-04-06T02:10:43;21.60;;;12.30;;
24859;SDS011;12936;52.006;4.350;2023-04-06T02:13:16;19.43;;;12.10;;
24859;SDS011;12936;52.006;4.350;2023-04-06T02:15:44;20.97;;;12.07;;
24859;SDS011;12936;52.006;4.350;2023-04-06T02:18:13;22.27;;;13.03;;
24859;SDS011;12936;52.006;4.350;2023-04-06T02:20:44;19.13;;;12.30;;
24859;SDS011;12936;52.006;4.350;2023-04-06T02:23:13;26.17;;;13.23;;
24859;SDS011;12936;52.006;4.350;2023-04-06T02:25:43;20.20;;;12.30;;
24859;SDS011;12936;52.006;4.350;2023-04-06T02:28:11;22.70;;;13.17;;
24859;SDS011;12936;52.006;4.350;2023-04-06T02:30:43;19.57;;;12.67;;
24859;SDS011;12936;52.006;4.350;2023-04-06T02:33:15;25.47;;;12.57;;
24859;SDS011;12936;52.006;4.350;2023-04-06T02:35:43;21.43;;;13.10;;
24859;SDS011;12936;52.006;4.350;2023-04-06T02:38:12;20.07;;;12.93;;
24859;SDS011;12936;52.006;4.350;2023-04-06T02:40:41;20.20;;;13.17;;
24859;SDS011;12936;52.006;4.350;2023-04-06T02:43:09;22.37;;;13.57;;
24859;SDS011;12936;52.006;4.350;2023-04-06T02:45:38;21.30;;;13.53;;
24859;SDS011;12936;52.006;4.350;2023-04-06T02:48:11;20.50;;;13.10;;
24859;SDS011;12936;52.006;4.350;2023-04-06T02:50:39;23.43;;;13.50;;
24859;SDS011;12936;52.006;4.350;2023-04-06T02:53:13;23.13;;;12.73;;
24859;SDS011;12936;52.006;4.350;2023-04-06T02:55:41;24.30;;;13.60;;
24859;SDS011;12936;52.006;4.350;2023-04-06T02:58:12;24.20;;;13.83;;
24859;SDS011;12936;52.006;4.350;2023-04-06T03:00:41;22.37;;;12.80;;
24859;SDS011;12936;52.006;4.350;2023-04-06T03:03:11;21.40;;;13.07;;
24859;SDS011;12936;52.006;4.350;2023-04-06T03:05:40;24.30;;;13.20;;
24859;SDS011;12936;52.006;4.350;2023-04-06T03:08:08;22.70;;;12.83;;
24859;SDS011;12936;52.006;4.350;2023-04-06T03:10:37;21.53;;;13.27;;
24859;SDS011;12936;52.006;4.350;2023-04-06T03:13:06;21.53;;;13.50;;
24859;SDS011;12936;52.006;4.350;2023-04-06T03:15:35;25.40;;;13.10;;
24859;SDS011;12936;52.006;4.350;2023-04-06T03:18:04;23.73;;;14.17;;
24859;SDS011;12936;52.006;4.350;2023-04-06T03:20:36;22.23;;;12.63;;
24859;SDS011;12936;52.006;4.350;2023-04-06T03:23:04;21.80;;;13.17;;
24859;SDS011;12936;52.006;4.350;2023-04-06T03:25:33;24.97;;;13.53;;
24859;SDS011;12936;52.006;4.350;2023-04-06T03:28:01;21.30;;;13.20;;
24859;SDS011;12936;52.006;4.350;2023-04-06T03:30:34;23.93;;;13.13;;
24859;SDS011;12936;52.006;4.350;2023-04-06T03:33:24;19.67;;;12.70;;
24859;SDS011;12936;52.006;4.350;2023-04-06T03:35:54;19.60;;;12.60;;
24859;SDS011;12936;52.006;4.350;2023-04-06T03:38:25;23.77;;;13.13;;
24859;SDS011;12936;52.006;4.350;2023-04-06T03:40:54;22.00;;;13.40;;
24859;SDS011;12936;52.006;4.350;2023-04-06T03:43:22;22.47;;;13.63;;
24859;SDS011;12936;52.006;4.350;2023-04-06T03:45:50;24.10;;;14.10;;
24859;SDS011;12936;52.006;4.350;2023-04-06T03:48:19;21.30;;;13.53;;
24859;SDS011;12936;52.006;4.350;2023-04-06T03:50:48;28.93;;;14.70;;
24859;SDS011;12936;52.006;4.350;2023-04-06T03:53:21;26.60;;;14.00;;
24859;SDS011;12936;52.006;4.350;2023-04-06T03:55:51;23.63;;;14.30;;
24859;SDS011;12936;52.006;4.350;2023-04-06T03:58:20;22.80;;;13.97;;
24859;SDS011;12936;52.006;4.350;2023-04-06T04:00:50;23.07;;;14.47;;
24859;SDS011;12936;52.006;4.350;2023-04-06T04:03:18;23.63;;;14.43;;
24859;SDS011;12936;52.006;4.350;2023-04-06T04:05:48;24.40;;;14.10;;
24859;SDS011;12936;52.006;4.350;2023-04-06T04:08:17;25.73;;;15.10;;
24859;SDS011;12936;52.006;4.350;2023-04-06T04:10:46;22.33;;;14.80;;
24859;SDS011;12936;52.006;4.350;2023-04-06T04:13:34;22.33;;;14.00;;
24859;SDS011;12936;52.006;4.350;2023-04-06T04:16:03;24.23;;;14.13;;
24859;SDS011;12936;52.006;4.350;2023-04-06T04:18:31;26.43;;;14.70;;
24859;SDS011;12936;52.006;4.350;2023-04-06T04:20:59;26.57;;;15.27;;
24859;SDS011;12936;52.006;4.350;2023-04-06T04:23:27;30.77;;;15.37;;
24859;SDS011;12936;52.006;4.350;2023-04-06T04:25:57;27.80;;;14.20;;
24859;SDS011;12936;52.006;4.350;2023-04-06T04:28:25;25.80;;;14.40;;
24859;SDS011;12936;52.006;4.350;2023-04-06T04:30:53;24.37;;;15.10;;
24859;SDS011;12936;52.006;4.350;2023-04-06T04:33:21;23.60;;;15.30;;
24859;SDS011;12936;52.006;4.350;2023-04-06T04:35:49;23.57;;;15.50;;
24859;SDS011;12936;52.006;4.350;2023-04-06T04:38:18;28.10;;;15.90;;
24859;SDS011;12936;52.006;4.350;2023-04-06T04:40:46;27.70;;;15.50;;
24859;SDS011;12936;52.006;4.350;2023-04-06T04:43:15;28.30;;;16.53;;
24859;SDS011;12936;52.006;4.350;2023-04-06T04:45:43;26.77;;;15.90;;
24859;SDS011;12936;52.006;4.350;2023-04-06T04:48:11;24.33;;;15.73;;
24859;SDS011;12936;52.006;4.350;2023-04-06T04:50:39;25.80;;;15.97;;
24859;SDS011;12936;52.006;4.350;2023-04-06T04:53:07;29.23;;;16.10;;
24859;SDS011;12936;52.006;4.350;2023-04-06T04:55:35;26.93;;;16.93;;
24859;SDS011;12936;52.006;4.350;2023-04-06T04:58:04;29.87;;;19.20;;
24859;SDS011;12936;52.006;4.350;2023-04-06T05:00:33;29.30;;;17.70;;
24859;SDS011;12936;52.006;4.350;2023-04-06T05:03:01;36.47;;;18.37;;
24859;SDS011;12936;52.006;4.350;2023-04-06T05:05:31;32.87;;;17.90;;
24859;SDS011;12936;52.006;4.350;2023-04-06T05:07:59;35.37;;;18.40;;
24859;SDS011;12936;52.006;4.350;2023-04-06T05:10:28;36.17;;;20.23;;
24859;SDS011;12936;52.006;4.350;2023-04-06T05:12:56;35.60;;;20.33;;
24859;SDS011;12936;52.006;4.350;2023-04-06T05:15:24;40.20;;;21.17;;
24859;SDS011;12936;52.006;4.350;2023-04-06T05:17:54;43.17;;;21.00;;
24859;SDS011;12936;52.006;4.350;2023-04-06T05:20:22;44.07;;;21.33;;
24859;SDS011;12936;52.006;4.350;2023-04-06T05:22:50;40.30;;;21.40;;
24859;SDS011;12936;52.006;4.350;2023-04-06T05:25:18;33.23;;;20.07;;
24859;SDS011;12936;52.006;4.350;2023-04-06T05:27:46;37.37;;;20.73;;
24859;SDS011;12936;52.006;4.350;2023-04-06T05:30:15;39.00;;;22.30;;
24859;SDS011;12936;52.006;4.350;2023-04-06T05:32:45;37.73;;;21.23;;
24859;SDS011;12936;52.006;4.350;2023-04-06T05:35:17;39.03;;;21.40;;
24859;SDS011;12936;52.006;4.350;2023-04-06T05:37:45;40.30;;;21.20;;
24859;SDS011;12936;52.006;4.350;2023-04-06T05:40:13;35.20;;;22.07;;
24859;SDS011;12936;52.006;4.350;2023-04-06T05:42:42;38.73;;;21.77;;
24859;SDS011;12936;52.006;4.350;2023-04-06T05:45:10;37.10;;;21.33;;
24859;SDS011;12936;52.006;4.350;2023-04-06T05:47:43;40.07;;;23.53;;
24859;SDS011;12936;52.006;4.350;2023-04-06T05:50:11;37.87;;;23.63;;
24859;SDS011;12936;52.006;4.350;2023-04-06T05:52:42;39.60;;;23.73;;
24859;SDS011;12936;52.006;4.350;2023-04-06T05:55:12;40.27;;;24.33;;
24859;SDS011;12936;52.006;4.350;2023-04-06T05:57:40;36.30;;;23.13;;
24859;SDS011;12936;52.006;4.350;2023-04-06T06:00:09;43.90;;;24.13;;
24859;SDS011;12936;52.006;4.350;2023-04-06T06:02:38;48.80;;;23.83;;
24859;SDS011;12936;52.006;4.350;2023-04-06T06:05:08;45.90;;;25.63;;
24859;SDS011;12936;52.006;4.350;2023-04-06T06:07:37;40.33;;;24.67;;
24859;SDS011;12936;52.006;4.350;2023-04-06T06:10:07;38.17;;;23.83;;
24859;SDS011;12936;52.006;4.350;2023-04-06T06:12:36;37.63;;;25.23;;
24859;SDS011;12936;52.006;4.350;2023-04-06T06:15:04;37.37;;;24.07;;
24859;SDS011;12936;52.006;4.350;2023-04-06T06:17:33;39.17;;;25.07;;
24859;SDS011;12936;52.006;4.350;2023-04-06T06:20:04;40.30;;;23.83;;
24859;SDS011;12936;52.006;4.350;2023-04-06T06:22:33;41.50;;;24.17;;
24859;SDS011;12936;52.006;4.350;2023-04-06T06:25:02;43.53;;;24.87;;
24859;SDS011;12936;52.006;4.350;2023-04-06T06:27:31;47.17;;;25.97;;
24859;SDS011;12936;52.006;4.350;2023-04-06T06:30:00;37.43;;;23.53;;
24859;SDS011;12936;52.006;4.350;2023-04-06T06:32:28;39.73;;;25.00;;
24859;SDS011;12936;52.006;4.350;2023-04-06T06:34:56;39.87;;;24.10;;
24859;SDS011;12936;52.006;4.350;2023-04-06T06:37:25;40.33;;;25.27;;
24859;SDS011;12936;52.006;4.350;2023-04-06T06:39:56;38.63;;;24.77;;
24859;SDS011;12936;52.006;4.350;2023-04-06T06:42:24;37.67;;;24.63;;
24859;SDS011;12936;52.006;4.350;2023-04-06T06:44:54;40.90;;;24.87;;
24859;SDS011;12936;52.006;4.350;2023-04-06T06:47:22;44.50;;;26.03;;
24859;SDS011;12936;52.006;4.350;2023-04-06T06:49:51;42.30;;;26.43;;
24859;SDS011;12936;52.006;4.350;2023-04-06T06:52:19;38.97;;;24.87;;
24859;SDS011;12936;52.006;4.350;2023-04-06T06:54:49;44.43;;;25.70;;
24859;SDS011;12936;52.006;4.350;2023-04-06T06:57:17;41.10;;;26.07;;
24859;SDS011;12936;52.006;4.350;2023-04-06T06:59:45;43.57;;;27.77;;
24859;SDS011;12936;52.006;4.350;2023-04-06T07:02:15;40.90;;;26.20;;
24859;SDS011;12936;52.006;4.350;2023-04-06T07:04:47;43.07;;;25.53;;
24859;SDS011;12936;52.006;4.350;2023-04-06T07:07:15;41.83;;;26.10;;
24859;SDS011;12936;52.006;4.350;2023-04-06T07:09:43;41.53;;;25.70;;
24859;SDS011;12936;52.006;4.350;2023-04-06T07:12:11;44.00;;;25.77;;
24859;SDS011;12936;52.006;4.350;2023-04-06T07:14:42;37.40;;;25.07;;
24859;SDS011;12936;52.006;4.350;2023-04-06T07:17:11;35.53;;;22.27;;
24859;SDS011;12936;52.006;4.350;2023-04-06T07:19:40;35.47;;;20.00;;
24859;SDS011;12936;52.006;4.350;2023-04-06T07:22:08;28.33;;;19.43;;
24859;SDS011;12936;52.006;4.350;2023-04-06T07:24:36;30.73;;;19.93;;
24859;SDS011;12936;52.006;4.350;2023-04-06T07:27:05;28.80;;;18.17;;
24859;SDS011;12936;52.006;4.350;2023-04-06T07:29:33;28.03;;;17.20;;
24859;SDS011;12936;52.006;4.350;2023-04-06T07:32:01;25.10;;;17.17;;
24859;SDS011;12936;52.006;4.350;2023-04-06T07:34:29;25.67;;;16.37;;
24859;SDS011;12936;52.006;4.350;2023-04-06T07:36:59;23.50;;;15.03;;
24859;SDS011;12936;52.006;4.350;2023-04-06T07:39:29;22.30;;;15.77;;
24859;SDS011;12936;52.006;4.350;2023-04-06T07:41:57;21.53;;;15.30;;
24859;SDS011;12936;52.006;4.350;2023-04-06T07:44:25;24.43;;;16.43;;
24859;SDS011;12936;52.006;4.350;2023-04-06T07:46:53;24.60;;;16.63;;
24859;SDS011;12936;52.006;4.350;2023-04-06T07:49:21;23.90;;;15.93;;
24859;SDS011;12936;52.006;4.350;2023-04-06T07:51:49;22.77;;;15.43;;
24859;SDS011;12936;52.006;4.350;2023-04-06T07:54:19;24.63;;;15.57;;
24859;SDS011;12936;52.006;4.350;2023-04-06T07:56:47;25.93;;;14.93;;
24859;SDS011;12936;52.006;4.350;2023-04-06T07:59:15;22.33;;;14.33;;
24859;SDS011;12936;52.006;4.350;2023-04-06T08:01:43;21.40;;;14.60;;
24859;SDS011;12936;52.006;4.350;2023-04-06T08:04:11;20.13;;;13.77;;
24859;SDS011;12936;52.006;4.350;2023-04-06T08:06:40;21.93;;;13.60;;
24859;SDS011;12936;52.006;4.350;2023-04-06T08:09:08;21.27;;;13.67;;
24859;SDS011;12936;52.006;4.350;2023-04-06T08:11:37;21.57;;;13.83;;
24859;SDS011;12936;52.006;4.350;2023-04-06T08:14:05;23.60;;;15.00;;
24859;SDS011;12936;52.006;4.350;2023-04-06T08:16:34;22.23;;;14.63;;
24859;SDS011;12936;52.006;4.350;2023-04-06T08:19:02;26.43;;;14.70;;
24859;SDS011;12936;52.006;4.350;2023-04-06T08:21:30;22.03;;;14.13;;
24859;SDS011;12936;52.006;4.350;2023-04-06T08:23:59;20.13;;;13.43;;
24859;SDS011;12936;52.006;4.350;2023-04-06T08:26:27;19.47;;;13.57;;
24859;SDS011;12936;52.006;4.350;2023-04-06T08:28:57;22.03;;;14.03;;
24859;SDS011;12936;52.006;4.350;2023-04-06T08:31:25;21.33;;;13.93;;
24859;SDS011;12936;52.006;4.350;2023-04-06T08:33:54;16.63;;;11.70;;
24859;SDS011;12936;52.006;4.350;2023-04-06T08:36:22;19.50;;;11.00;;
24859;SDS011;12936;52.006;4.350;2023-04-06T08:38:50;12.60;;;8.37;;
24859;SDS011;12936;52.006;4.350;2023-04-06T08:41:20;14.03;;;9.00;;
24859;SDS011;12936;52.006;4.350;2023-04-06T08:43:49;16.50;;;8.90;;
24859;SDS011;12936;52.006;4.350;2023-04-06T08:46:24;16.70;;;9.20;;
24859;SDS011;12936;52.006;4.350;2023-04-06T08:48:56;11.60;;;7.70;;
24859;SDS011;12936;52.006;4.350;2023-04-06T08:51:26;14.73;;;7.40;;
24859;SDS011;12936;52.006;4.350;2023-04-06T08:53:57;13.87;;;8.00;;
24859;SDS011;12936;52.006;4.350;2023-04-06T08:56:27;11.20;;;7.00;;
24859;SDS011;12936;52.006;4.350;2023-04-06T08:58:55;11.50;;;7.37;;
24859;SDS011;12936;52.006;4.350;2023-04-06T09:01:26;11.73;;;5.80;;
24859;SDS011;12936;52.006;4.350;2023-04-06T09:03:55;8.13;;;4.80;;
24859;SDS011;12936;52.006;4.350;2023-04-06T09:06:26;8.57;;;4.57;;
24859;SDS011;12936;52.006;4.350;2023-04-06T09:08:55;8.23;;;4.20;;
24859;SDS011;12936;52.006;4.350;2023-04-06T09:11:24;7.00;;;4.23;;
24859;SDS011;12936;52.006;4.350;2023-04-06T09:14:12;8.03;;;4.43;;
24859;SDS011;12936;52.006;4.350;2023-04-06T09:16:43;6.87;;;5.47;;
24859;SDS011;12936;52.006;4.350;2023-04-06T09:19:12;10.40;;;5.93;;
24859;SDS011;12936;52.006;4.350;2023-04-06T09:21:40;10.53;;;6.30;;
24859;SDS011;12936;52.006;4.350;2023-04-06T09:24:08;10.37;;;5.87;;
24859;SDS011;12936;52.006;4.350;2023-04-06T09:26:44;9.17;;;6.50;;
24859;SDS011;12936;52.006;4.350;2023-04-06T09:29:21;8.10;;;5.40;;
24859;SDS011;12936;52.006;4.350;2023-04-06T09:32:03;7.67;;;6.07;;
24859;SDS011;12936;52.006;4.350;2023-04-06T09:34:31;11.47;;;7.13;;
24859;SDS011;12936;52.006;4.350;2023-04-06T09:37:00;9.30;;;6.30;;
24859;SDS011;12936;52.006;4.350;2023-04-06T09:39:39;9.50;;;6.77;;
24859;SDS011;12936;52.006;4.350;2023-04-06T09:42:08;12.20;;;7.13;;
24859;SDS011;12936;52.006;4.350;2023-04-06T09:44:36;9.47;;;6.57;;
24859;SDS011;12936;52.006;4.350;2023-04-06T09:47:06;10.00;;;7.33;;
24859;SDS011;12936;52.006;4.350;2023-04-06T09:49:35;13.37;;;7.80;;
24859;SDS011;12936;52.006;4.350;2023-04-06T09:52:03;12.00;;;7.23;;
24859;SDS011;12936;52.006;4.350;2023-04-06T09:54:35;13.97;;;8.40;;
24859;SDS011;12936;52.006;4.350;2023-04-06T09:57:07;10.70;;;7.57;;
24859;SDS011;12936;52.006;4.350;2023-04-06T09:59:43;10.30;;;7.53;;
24859;SDS011;12936;52.006;4.350;2023-04-06T10:02:20;11.77;;;8.10;;
24859;SDS011;12936;52.006;4.350;2023-04-06T10:04:59;9.97;;;7.93;;
24859;SDS011;12936;52.006;4.350;2023-04-06T10:07:33;10.80;;;7.33;;
24859;SDS011;12936;52.006;4.350;2023-04-06T10:10:22;10.97;;;7.27;;
24859;SDS011;12936;52.006;4.350;2023-04-06T10:12:50;11.17;;;8.20;;
24859;SDS011;12936;52.006;4.350;2023-04-06T10:15:18;11.70;;;7.63;;
24859;SDS011;12936;52.006;4.350;2023-04-06T10:17:49;10.60;;;6.97;;
24859;SDS011;12936;52.006;4.350;2023-04-06T10:20:21;11.77;;;7.90;;
24859;SDS011;12936;52.006;4.350;2023-04-06T10:22:55;12.63;;;7.50;;
24859;SDS011;12936;52.006;4.350;2023-04-06T10:25:29;9.60;;;7.23;;
24859;SDS011;12936;52.006;4.350;2023-04-06T10:27:59;10.63;;;7.50;;
24859;SDS011;12936;52.006;4.350;2023-04-06T10:30:28;9.40;;;7.17;;
24859;SDS011;12936;52.006;4.350;2023-04-06T10:32:57;9.10;;;6.87;;
24859;SDS011;12936;52.006;4.350;2023-04-06T10:35:36;9.27;;;6.50;;
24859;SDS011;12936;52.006;4.350;2023-04-06T10:38:05;8.10;;;6.13;;
24859;SDS011;12936;52.006;4.350;2023-04-06T10:40:35;9.43;;;6.83;;
24859;SDS011;12936;52.006;4.350;2023-04-06T10:43:08;11.17;;;7.23;;
24859;SDS011;12936;52.006;4.350;2023-04-06T10:45:38;10.07;;;6.60;;
24859;SDS011;12936;52.006;4.350;2023-04-06T10:48:15;10.80;;;6.93;;
24859;SDS011;12936;52.006;4.350;2023-04-06T10:50:44;9.97;;;7.30;;
24859;SDS011;12936;52.006;4.350;2023-04-06T10:53:20;10.90;;;6.60;;
24859;SDS011;12936;52.006;4.350;2023-04-06T10:55:49;10.23;;;7.80;;
24859;SDS011;12936;52.006;4.350;2023-04-06T10:58:18;11.20;;;8.00;;
24859;SDS011;12936;52.006;4.350;2023-04-06T11:00:47;11.03;;;7.40;;
24859;SDS011;12936;52.006;4.350;2023-04-06T11:03:21;13.70;;;8.07;;
24859;SDS011;12936;52.006;4.350;2023-04-06T11:05:50;9.27;;;6.97;;
24859;SDS011;12936;52.006;4.350;2023-04-06T11:08:22;11.00;;;7.20;;
24859;SDS011;12936;52.006;4.350;2023-04-06T11:10:51;10.27;;;7.47;;
24859;SDS011;12936;52.006;4.350;2023-04-06T11:13:36;10.10;;;6.93;;
24859;SDS011;12936;52.006;4.350;2023-04-06T11:16:05;9.83;;;7.63;;
24859;SDS011;12936;52.006;4.350;2023-04-06T11:18:35;9.07;;;7.60;;
24859;SDS011;12936;52.006;4.350;2023-04-06T11:21:04;13.27;;;8.00;;
24859;SDS011;12936;52.006;4.350;2023-04-06T11:23:32;9.60;;;7.13;;
24859;SDS011;12936;52.006;4.350;2023-04-06T11:26:00;11.23;;;8.27;;
24859;SDS011;12936;52.006;4.350;2023-04-06T11:28:44;10.40;;;8.00;;
24859;SDS011;12936;52.006;4.350;2023-04-06T11:31:12;9.77;;;7.30;;
24859;SDS011;12936;52.006;4.350;2023-04-06T11:33:42;12.03;;;7.73;;
24859;SDS011;12936;52.006;4.350;2023-04-06T11:36:10;13.27;;;8.37;;
24859;SDS011;12936;52.006;4.350;2023-04-06T11:38:41;10.27;;;8.00;;
24859;SDS011;12936;52.006;4.350;2023-04-06T11:41:10;11.03;;;7.83;;
24859;SDS011;12936;52.006;4.350;2023-04-06T11:43:39;10.57;;;7.90;;
24859;SDS011;12936;52.006;4.350;2023-04-06T11:46:17;11.70;;;8.87;;
24859;SDS011;12936;52.006;4.350;2023-04-06T11:48:48;10.80;;;8.40;;
24859;SDS011;12936;52.006;4.350;2023-04-06T11:51:21;10.80;;;8.87;;
24859;SDS011;12936;52.006;4.350;2023-04-06T11:53:50;12.10;;;8.83;;
24859;SDS011;12936;52.006;4.350;2023-04-06T11:56:28;12.27;;;8.90;;
24859;SDS011;12936;52.006;4.350;2023-04-06T11:58:57;13.20;;;9.87;;
24859;SDS011;12936;52.006;4.350;2023-04-06T12:01:26;11.83;;;9.27;;
24859;SDS011;12936;52.006;4.350;2023-04-06T12:03:56;12.50;;;9.33;;
24859;SDS011;12936;52.006;4.350;2023-04-06T12:06:25;11.40;;;9.07;;
24859;SDS011;12936;52.006;4.350;2023-04-06T12:08:53;12.30;;;9.30;;
24859;SDS011;12936;52.006;4.350;2023-04-06T12:11:21;12.30;;;9.00;;
24859;SDS011;12936;52.006;4.350;2023-04-06T12:13:49;12.73;;;9.70;;
24859;SDS011;12936;52.006;4.350;2023-04-06T12:16:18;10.70;;;9.23;;
24859;SDS011;12936;52.006;4.350;2023-04-06T12:18:46;11.30;;;9.10;;
24859;SDS011;12936;52.006;4.350;2023-04-06T12:21:16;12.60;;;9.80;;
24859;SDS011;12936;52.006;4.350;2023-04-06T12:23:44;11.07;;;8.93;;
24859;SDS011;12936;52.006;4.350;2023-04-06T12:26:12;10.80;;;8.33;;
24859;SDS011;12936;52.006;4.350;2023-04-06T12:28:40;8.87;;;7.97;;
24859;SDS011;12936;52.006;4.350;2023-04-06T12:31:14;8.83;;;7.53;;
24859;SDS011;12936;52.006;4.350;2023-04-06T12:33:43;9.97;;;7.53;;
24859;SDS011;12936;52.006;4.350;2023-04-06T12:36:13;10.67;;;7.43;;
24859;SDS011;12936;52.006;4.350;2023-04-06T12:38:46;8.10;;;7.30;;
24859;SDS011;12936;52.006;4.350;2023-04-06T12:41:14;8.87;;;7.63;;
24859;SDS011;12936;52.006;4.350;2023-04-06T12:43:43;8.53;;;7.33;;
24859;SDS011;12936;52.006;4.350;2023-04-06T12:46:12;8.70;;;6.60;;
24859;SDS011;12936;52.006;4.350;2023-04-06T12:48:40;8.63;;;6.43;;
24859;SDS011;12936;52.006;4.350;2023-04-06T12:51:08;8.10;;;6.60;;
24859;SDS011;12936;52.006;4.350;2023-04-06T12:53:38;7.20;;;6.30;;
24859;SDS011;12936;52.006;4.350;2023-04-06T12:56:10;9.60;;;6.90;;
24859;SDS011;12936;52.006;4.350;2023-04-06T12:58:41;7.27;;;6.10;;
24859;SDS011;12936;52.006;4.350;2023-04-06T13:01:09;7.57;;;6.20;;
24859;SDS011;12936;52.006;4.350;2023-04-06T13:03:39;9.73;;;6.67;;
24859;SDS011;12936;52.006;4.350;2023-04-06T13:06:08;7.60;;;6.80;;
24859;SDS011;12936;52.006;4.350;2023-04-06T13:08:39;6.63;;;5.97;;
24859;SDS011;12936;52.006;4.350;2023-04-06T13:11:08;7.07;;;6.37;;
24859;SDS011;12936;52.006;4.350;2023-04-06T13:13:37;6.83;;;6.17;;
24859;SDS011;12936;52.006;4.350;2023-04-06T13:16:06;8.57;;;6.10;;
24859;SDS011;12936;52.006;4.350;2023-04-06T13:18:35;7.57;;;5.87;;
24859;SDS011;12936;52.006;4.350;2023-04-06T13:21:05;8.17;;;5.90;;
24859;SDS011;12936;52.006;4.350;2023-04-06T13:23:34;7.73;;;6.10;;
24859;SDS011;12936;52.006;4.350;2023-04-06T13:26:04;8.47;;;6.20;;
24859;SDS011;12936;52.006;4.350;2023-04-06T13:28:34;6.90;;;6.20;;
24859;SDS011;12936;52.006;4.350;2023-04-06T13:31:04;7.67;;;6.47;;
24859;SDS011;12936;52.006;4.350;2023-04-06T13:33:33;8.13;;;6.37;;
24859;SDS011;12936;52.006;4.350;2023-04-06T13:36:01;7.60;;;6.20;;
24859;SDS011;12936;52.006;4.350;2023-04-06T13:38:30;7.40;;;6.60;;
24859;SDS011;12936;52.006;4.350;2023-04-06T13:40:59;8.93;;;6.50;;
24859;SDS011;12936;52.006;4.350;2023-04-06T13:43:29;7.43;;;6.20;;
24859;SDS011;12936;52.006;4.350;2023-04-06T13:45:57;8.40;;;7.10;;
24859;SDS011;12936;52.006;4.350;2023-04-06T13:48:27;7.90;;;6.70;;
24859;SDS011;12936;52.006;4.350;2023-04-06T13:50:55;7.60;;;6.77;;
24859;SDS011;12936;52.006;4.350;2023-04-06T13:53:24;10.47;;;6.80;;
24859;SDS011;12936;52.006;4.350;2023-04-06T13:55:53;8.60;;;6.93;;
24859;SDS011;12936;52.006;4.350;2023-04-06T13:58:21;7.67;;;6.90;;
24859;SDS011;12936;52.006;4.350;2023-04-06T14:00:53;7.03;;;6.10;;
24859;SDS011;12936;52.006;4.350;2023-04-06T14:03:22;9.43;;;6.90;;
24859;SDS011;12936;52.006;4.350;2023-04-06T14:05:50;7.87;;;7.07;;
24859;SDS011;12936;52.006;4.350;2023-04-06T14:08:18;7.50;;;6.50;;
24859;SDS011;12936;52.006;4.350;2023-04-06T14:10:47;7.33;;;6.23;;
24859;SDS011;12936;52.006;4.350;2023-04-06T14:13:15;7.07;;;6.37;;
24859;SDS011;12936;52.006;4.350;2023-04-06T14:15:43;7.63;;;6.70;;
24859;SDS011;12936;52.006;4.350;2023-04-06T14:18:12;7.23;;;6.50;;
24859;SDS011;12936;52.006;4.350;2023-04-06T14:20:41;7.70;;;6.50;;
24859;SDS011;12936;52.006;4.350;2023-04-06T14:23:10;7.87;;;6.90;;
24859;SDS011;12936;52.006;4.350;2023-04-06T14:25:38;7.87;;;7.10;;
24859;SDS011;12936;52.006;4.350;2023-04-06T14:28:06;8.27;;;7.20;;
24859;SDS011;12936;52.006;4.350;2023-04-06T14:30:36;6.87;;;5.90;;
24859;SDS011;12936;52.006;4.350;2023-04-06T14:33:04;8.23;;;6.83;;
24859;SDS011;12936;52.006;4.350;2023-04-06T14:35:35;8.27;;;6.53;;
24859;SDS011;12936;52.006;4.350;2023-04-06T14:38:05;7.13;;;6.07;;
24859;SDS011;12936;52.006;4.350;2023-04-06T14:40:34;6.60;;;5.80;;
24859;SDS011;12936;52.006;4.350;2023-04-06T14:43:03;7.50;;;5.83;;
24859;SDS011;12936;52.006;4.350;2023-04-06T14:45:32;7.33;;;5.90;;
24859;SDS011;12936;52.006;4.350;2023-04-06T14:48:05;7.60;;;6.37;;